• Join FlightAware (Why Join?)
  • Login
  • US Flag 
11:09PM EST


 

Airport Tracker/Info


-or-


 

Live Flight TrackerFlight Track Log ✈ FLG3757 ✈ 09-Jan-2014 ✈ KBGM - KDTW

Flight Track Log - Related Links

Times and Time Zones

All times are in EST time to prevent confusion due to time zone crossing. See the FLG3757 flight status page for this flight to view local times or setup timezone preferences in your user account.

Time Position Orientation Groundspeed Altitude Reporting Facility
EST Latitude Longitude Course Direction KTS MPH feet Rate Location/Type
06:23AM 42.2456 -76.0500 289° West 207 238 4,600  Level Cleveland Center
06:23AM 42.2594 -76.1053 289° West 214 246 6,400 2,820 Climbing New York Center
06:24AM 42.2808 -76.1856 290° West 227 261 9,300 2,400 Climbing New York Center
06:25AM 42.3061 -76.2717 292° West 232 267 11,200 1,320 Climbing New York Center
06:27AM 42.3425 -76.4033 291° West 300 345 12,500 1,080 Climbing Cleveland Center
06:28AM 42.3747 -76.5225 290° West 328 377 13,900 1,440 Climbing Cleveland Center
06:29AM 42.4089 -76.6444 291° West 342 394 15,500 1,560 Climbing Cleveland Center
06:30AM 42.4428 -76.7658 291° West 346 398 17,100 1,320 Climbing Cleveland Center
06:31AM 42.4808 -76.9106 290° West 343 395 18,300 1,320 Climbing Cleveland Center
06:32AM 42.5131 -77.0306 290° West 340 391 19,800 1,320 Climbing Cleveland Center
06:33AM 42.5447 -77.1494 290° West 339 390 21,000 1,080 Climbing Cleveland Center
06:34AM 42.5767 -77.2692 290° West 338 389 22,100 1,020 Climbing Cleveland Center
06:35AM 42.6089 -77.3903 290° West 341 392 23,100 960 Climbing Cleveland Center
06:36AM 42.6411 -77.5147 289° West 344 396 24,100 960 Climbing Cleveland Center
06:37AM 42.6617 -77.6378 283° West 341 392 25,100 960 Climbing Cleveland Center
06:38AM 42.6661 -77.7675 273° West 344 396 26,100 960 Climbing Cleveland Center
06:39AM 42.6697 -77.9047 272° West 336 387 27,100 780 Climbing Cleveland Center
06:40AM 42.6733 -78.0314 272° West 336 387 27,800 420 Climbing Cleveland Center
06:41AM 42.6753 -78.1600 271° West 341 392 28,000 60 Climbing Cleveland Center
06:42AM 42.6794 -78.2922 272° West 350 403 28,000  Level Cleveland Center
06:43AM 42.6811 -78.4283 271° West 358 412 28,000  Level Cleveland Center
06:44AM 42.6842 -78.5692 272° West 376 433 28,000  Level Cleveland Center
06:45AM 42.6878 -78.7111 272° West 376 433 28,000  Level Cleveland Center
06:46AM 42.6894 -78.8533 271° West 377 434 28,000  Level Cleveland Center
06:47AM 42.6922 -78.9975 272° West 383 441 28,000  Level Cleveland Center
06:48AM 42.6936 -79.1406 271° West 380 437 28,000  Level Cleveland Center
06:49AM 42.6961 -79.2858 271° West 385 443 28,000  Level Cleveland Center
06:50AM 42.6983 -79.4311 271° West 386 444 28,000  Level Cleveland Center
06:51AM 42.7003 -79.6061 271° West 387 445 28,000  Level Cleveland Center
06:52AM 42.7017 -79.7525 271° West 388 447 28,000  Level Cleveland Center
06:53AM 42.7028 -79.8997 271° West 390 449 28,000  Level Cleveland Center
06:54AM 42.7036 -80.0425 271° West 395 455 28,000  Level Cleveland Center
06:55AM 42.7050 -80.1928 271° West 396 456 28,000  Level Cleveland Center
06:56AM 42.7042 -80.3403 270° West 391 450 28,000  Level Cleveland Center
06:57AM 42.7058 -80.4922 271° West 397 457 28,000  Level Cleveland Center
06:58AM 42.7050 -80.6406 270° West 393 452 28,000  Level Cleveland Center
06:59AM 42.7067 -80.7919 271° West 397 457 28,000 -60 Level Cleveland Center
07:00AM 42.7006 -80.9431 267° West 398 458 27,900 -600 Descending Cleveland Center
07:01AM 42.6833 -81.0917 261° West 396 456 26,800 -1,320 Descending Cleveland Center
07:02AM 42.6661 -81.2436 261° West 401 461 25,200 -1,560 Descending Cleveland Center
07:03AM 42.6489 -81.3939 261° West 402 463 23,700 -1,560 Descending Cleveland Center
07:04AM 42.6317 -81.5417 261° West 397 457 22,100 -1,680 Descending Cleveland Center
07:05AM 42.6111 -81.7150 261° West 397 457 20,300 -1,620 Descending Cleveland Center
07:06AM 42.5964 -81.8364 261° West 388 447 18,900 -1,200 Descending Cleveland Center
07:07AM 42.5792 -81.9753 260° West 377 434 17,900 -1,440 Descending Cleveland Center
07:08AM 42.5594 -82.1381 261° West 369 425 16,000 -1,800 Descending Cleveland Center
07:09AM 42.5417 -82.2706 260° West 365 420 14,400 -1,620 Descending Cleveland Center
07:09AM 42.5425 -82.2731 294° West 365 420 14,400 -1,500 Level Cleveland Center
07:10AM 42.5253 -82.4075 260° West 364 419 12,800 -1,320 Descending Cleveland Center
07:11AM 42.5114 -82.5272 261° West 360 414 12,000 -840 Descending Cleveland Center
07:11AM 42.5086 -82.5400 254° West 361 415 12,000  Level Cleveland Center
07:12AM 42.4822 -82.6139 244° Southwest 374 430 12,000 -120 Level Cleveland Center
07:12AM 42.4656 -82.6636 246° West 364 419 11,900 -540 Descending Cleveland Center
07:13AM 42.4425 -82.7275 244° Southwest 315 362 11,500 -840 Descending Cleveland Center
07:13AM 42.4297 -82.7658 246° West 311 358 11,100 -1,320 Descending Cleveland Center
07:14AM 42.4217 -82.8153 258° West 254 292 10,300 -1,620 Descending Cleveland Center
07:14AM 42.4247 -82.8606 275° West 267 307 9,500 -1,680 Descending Cleveland Center
07:15AM 42.4303 -82.9519 275° West 260 299 8,000 -1,560 Descending Cleveland Center
07:15AM 42.4317 -82.9597 284° West 266 306 7,900 -1,800 Descending Cleveland Center
07:16AM 42.4386 -83.0381 277° West 257 296 6,400 -1,680 Descending Cleveland Center
07:16AM 42.4392 -83.0536 273° West 257 296 6,200 -1,140 Descending Cleveland Center
07:17AM 42.4464 -83.1294 277° West 219 252 5,300 -1,320 Descending Cleveland Center
07:17AM 42.4411 -83.1525 253° West 231 266 4,900 -1,440 Descending Cleveland Center
07:18AM 42.4278 -83.1808 237° Southwest 211 243 4,300 -900 Descending Cleveland Center
07:18AM 42.3983 -83.2025 209° Southwest 212 244 4,000 -240 Descending Cleveland Center
07:19AM 42.3511 -83.2367 208° Southwest 199 229 4,000 -420 Level Cleveland Center
07:20AM 42.3281 -83.2544 210° Southwest 173 199 3,400 -1,020 Descending Cleveland Center
07:20AM 42.3108 -83.2667 208° Southwest 178 205 3,000 -900 Descending Cleveland Center
07:21AM 42.2903 -83.2803 206° Southwest 130 150 2,500 -900 Descending Cleveland Center
07:21AM 42.2767 -83.2922 213° Southwest 155 178 2,100 -840 Descending Cleveland Center
07:22AM 42.2544 -83.3092 209° Southwest 140 161 1,600 -780 Descending Cleveland Center
07:23AM 42.2439 -83.3178 211° Southwest 142 163 1,300 -420 Descending Cleveland Center
07:24AM 42.2111 -83.3408 208° Southwest 141 162 1,000 -300 Descending Cleveland Center
07:26AM 42.2000 -83.3500 236° Southwest  Level FlightAware Approximate